sensor_id;sensor_type;location;lat;lon;timestamp;P1;P2;P0
21358;PMS7003;13506;50.852;20.632;2023-12-29T00:00:00;24.00;22.60;12.40
21358;PMS7003;13506;50.852;20.632;2023-12-29T00:02:31;23.00;19.80;12.80
21358;PMS7003;13506;50.852;20.632;2023-12-29T00:04:59;30.80;28.60;19.00
21358;PMS7003;13506;50.852;20.632;2023-12-29T00:07:28;19.40;18.40;11.20
21358;PMS7003;13506;50.852;20.632;2023-12-29T00:09:56;18.00;15.40;9.80
21358;PMS7003;13506;50.852;20.632;2023-12-29T00:12:26;25.20;23.40;14.20
21358;PMS7003;13506;50.852;20.632;2023-12-29T00:14:53;21.80;21.60;13.80
21358;PMS7003;13506;50.852;20.632;2023-12-29T00:17:21;22.00;18.20;11.40
21358;PMS7003;13506;50.852;20.632;2023-12-29T00:19:49;20.60;19.20;10.40
21358;PMS7003;13506;50.852;20.632;2023-12-29T00:22:20;25.80;20.60;13.20
21358;PMS7003;13506;50.852;20.632;2023-12-29T00:24:49;20.40;19.60;11.40
21358;PMS7003;13506;50.852;20.632;2023-12-29T00:27:17;29.40;29.00;18.80
21358;PMS7003;13506;50.852;20.632;2023-12-29T00:29:46;26.00;22.80;13.60
21358;PMS7003;13506;50.852;20.632;2023-12-29T00:32:16;20.20;17.20;10.20
21358;PMS7003;13506;50.852;20.632;2023-12-29T00:34:44;26.00;25.00;16.80
21358;PMS7003;13506;50.852;20.632;2023-12-29T00:37:12;30.60;25.60;16.00
21358;PMS7003;13506;50.852;20.632;2023-12-29T00:39:39;25.60;22.60;13.40
21358;PMS7003;13506;50.852;20.632;2023-12-29T00:42:08;25.00;20.60;12.00
21358;PMS7003;13506;50.852;20.632;2023-12-29T00:44:38;24.40;19.00;11.20
21358;PMS7003;13506;50.852;20.632;2023-12-29T00:47:10;26.80;25.00;13.00
21358;PMS7003;13506;50.852;20.632;2023-12-29T00:49:38;20.60;18.60;12.80
21358;PMS7003;13506;50.852;20.632;2023-12-29T00:52:07;26.40;25.20;16.80
21358;PMS7003;13506;50.852;20.632;2023-12-29T00:54:35;39.60;33.80;21.00
21358;PMS7003;13506;50.852;20.632;2023-12-29T00:57:04;38.40;34.20;20.60
21358;PMS7003;13506;50.852;20.632;2023-12-29T00:59:32;30.60;25.40;16.60
21358;PMS7003;13506;50.852;20.632;2023-12-29T01:02:03;32.60;28.20;19.80
21358;PMS7003;13506;50.852;20.632;2023-12-29T01:04:34;30.80;26.80;17.20
21358;PMS7003;13506;50.852;20.632;2023-12-29T01:07:05;41.20;32.40;21.20
21358;PMS7003;13506;50.852;20.632;2023-12-29T01:09:36;35.60;30.40;17.20
21358;PMS7003;13506;50.852;20.632;2023-12-29T01:12:06;30.80;26.80;16.40
21358;PMS7003;13506;50.852;20.632;2023-12-29T01:14:34;35.20;34.00;26.20
21358;PMS7003;13506;50.852;20.632;2023-12-29T01:17:02;27.00;25.80;15.40
21358;PMS7003;13506;50.852;20.632;2023-12-29T01:19:30;28.00;26.80;15.80
21358;PMS7003;13506;50.852;20.632;2023-12-29T01:22:00;35.20;31.00;20.60
21358;PMS7003;13506;50.852;20.632;2023-12-29T01:24:28;34.40;32.80;19.00
21358;PMS7003;13506;50.852;20.632;2023-12-29T01:26:56;27.60;26.00;15.60
21358;PMS7003;13506;50.852;20.632;2023-12-29T01:29:24;33.00;29.80;18.40
21358;PMS7003;13506;50.852;20.632;2023-12-29T01:31:52;30.00;26.40;15.00
21358;PMS7003;13506;50.852;20.632;2023-12-29T01:34:20;32.40;28.60;17.40
21358;PMS7003;13506;50.852;20.632;2023-12-29T01:36:48;29.20;27.80;15.80
21358;PMS7003;13506;50.852;20.632;2023-12-29T01:39:19;27.60;26.80;17.00
21358;PMS7003;13506;50.852;20.632;2023-12-29T01:41:47;58.40;45.20;31.40
21358;PMS7003;13506;50.852;20.632;2023-12-29T01:44:23;52.60;43.60;27.00
21358;PMS7003;13506;50.852;20.632;2023-12-29T01:46:53;39.20;30.60;17.80
21358;PMS7003;13506;50.852;20.632;2023-12-29T01:49:24;29.20;25.40;15.20
21358;PMS7003;13506;50.852;20.632;2023-12-29T01:51:54;32.80;26.60;17.40
21358;PMS7003;13506;50.852;20.632;2023-12-29T01:54:27;37.60;32.20;22.40
21358;PMS7003;13506;50.852;20.632;2023-12-29T01:56:58;19.40;17.40;11.40
21358;PMS7003;13506;50.852;20.632;2023-12-29T01:59:28;28.00;23.40;13.00
21358;PMS7003;13506;50.852;20.632;2023-12-29T02:01:57;33.80;26.20;15.40
21358;PMS7003;13506;50.852;20.632;2023-12-29T02:04:25;28.00;23.80;14.80
21358;PMS7003;13506;50.852;20.632;2023-12-29T02:06:54;36.80;32.80;22.00
21358;PMS7003;13506;50.852;20.632;2023-12-29T02:09:26;27.80;26.60;15.20
21358;PMS7003;13506;50.852;20.632;2023-12-29T02:11:54;32.20;30.40;17.80
21358;PMS7003;13506;50.852;20.632;2023-12-29T02:14:23;30.60;28.20;20.40
21358;PMS7003;13506;50.852;20.632;2023-12-29T02:16:54;34.20;27.60;16.80
21358;PMS7003;13506;50.852;20.632;2023-12-29T02:19:34;38.80;37.00;24.80
21358;PMS7003;13506;50.852;20.632;2023-12-29T02:22:05;40.60;32.20;18.40
21358;PMS7003;13506;50.852;20.632;2023-12-29T02:24:35;39.60;33.80;20.80
21358;PMS7003;13506;50.852;20.632;2023-12-29T02:27:18;37.20;32.00;20.80
21358;PMS7003;13506;50.852;20.632;2023-12-29T02:30:02;42.80;36.60;25.00
21358;PMS7003;13506;50.852;20.632;2023-12-29T02:32:36;31.80;29.20;17.20
21358;PMS7003;13506;50.852;20.632;2023-12-29T02:35:08;31.40;28.80;18.20
21358;PMS7003;13506;50.852;20.632;2023-12-29T02:37:41;30.00;28.40;17.60
21358;PMS7003;13506;50.852;20.632;2023-12-29T02:40:10;34.00;28.40;17.20
21358;PMS7003;13506;50.852;20.632;2023-12-29T02:42:45;37.25;31.75;21.25
21358;PMS7003;13506;50.852;20.632;2023-12-29T02:45:13;32.60;27.00;15.80
21358;PMS7003;13506;50.852;20.632;2023-12-29T02:47:42;33.00;30.60;19.80
21358;PMS7003;13506;50.852;20.632;2023-12-29T02:50:10;36.00;30.80;21.40
21358;PMS7003;13506;50.852;20.632;2023-12-29T02:52:39;33.80;26.80;17.40
21358;PMS7003;13506;50.852;20.632;2023-12-29T02:55:07;35.40;35.40;26.60
21358;PMS7003;13506;50.852;20.632;2023-12-29T02:57:36;27.20;26.60;16.00
21358;PMS7003;13506;50.852;20.632;2023-12-29T03:00:06;27.40;25.80;15.40
21358;PMS7003;13506;50.852;20.632;2023-12-29T03:02:35;29.60;28.20;17.80
21358;PMS7003;13506;50.852;20.632;2023-12-29T03:05:03;27.60;24.20;14.80
21358;PMS7003;13506;50.852;20.632;2023-12-29T03:07:32;22.20;20.60;12.40
21358;PMS7003;13506;50.852;20.632;2023-12-29T03:09:59;30.75;26.75;15.50
21358;PMS7003;13506;50.852;20.632;2023-12-29T03:12:28;25.80;23.80;15.00
21358;PMS7003;13506;50.852;20.632;2023-12-29T03:14:56;28.80;24.40;15.80
21358;PMS7003;13506;50.852;20.632;2023-12-29T03:17:26;32.00;28.20;18.40
21358;PMS7003;13506;50.852;20.632;2023-12-29T03:19:54;33.00;27.20;17.80
21358;PMS7003;13506;50.852;20.632;2023-12-29T03:22:24;28.00;24.40;17.20
21358;PMS7003;13506;50.852;20.632;2023-12-29T03:24:52;35.00;31.60;19.80
21358;PMS7003;13506;50.852;20.632;2023-12-29T03:27:20;27.60;23.00;12.00
21358;PMS7003;13506;50.852;20.632;2023-12-29T03:29:48;37.80;33.00;22.40
21358;PMS7003;13506;50.852;20.632;2023-12-29T03:32:17;39.00;29.80;18.40
21358;PMS7003;13506;50.852;20.632;2023-12-29T03:34:46;28.40;25.00;15.00
21358;PMS7003;13506;50.852;20.632;2023-12-29T03:37:15;30.40;27.20;19.60
21358;PMS7003;13506;50.852;20.632;2023-12-29T03:39:44;29.40;22.80;14.60
21358;PMS7003;13506;50.852;20.632;2023-12-29T03:42:14;32.20;26.80;16.60
21358;PMS7003;13506;50.852;20.632;2023-12-29T03:44:42;30.20;25.80;14.40
21358;PMS7003;13506;50.852;20.632;2023-12-29T03:47:10;30.20;24.40;13.60
21358;PMS7003;13506;50.852;20.632;2023-12-29T03:49:37;32.00;28.40;17.00
21358;PMS7003;13506;50.852;20.632;2023-12-29T03:52:08;29.00;24.40;14.60
21358;PMS7003;13506;50.852;20.632;2023-12-29T03:54:36;26.20;23.40;13.40
21358;PMS7003;13506;50.852;20.632;2023-12-29T03:57:04;36.60;33.20;20.80
21358;PMS7003;13506;50.852;20.632;2023-12-29T03:59:35;31.40;28.60;17.80
21358;PMS7003;13506;50.852;20.632;2023-12-29T04:02:04;26.00;26.00;15.80
21358;PMS7003;13506;50.852;20.632;2023-12-29T04:04:32;38.60;36.20;26.60
21358;PMS7003;13506;50.852;20.632;2023-12-29T04:07:04;33.20;27.60;15.00
21358;PMS7003;13506;50.852;20.632;2023-12-29T04:09:33;27.20;24.80;15.20
21358;PMS7003;13506;50.852;20.632;2023-12-29T04:12:01;27.80;22.60;14.40
21358;PMS7003;13506;50.852;20.632;2023-12-29T04:14:30;34.80;29.20;18.60
21358;PMS7003;13506;50.852;20.632;2023-12-29T04:16:58;29.40;25.40;16.60
21358;PMS7003;13506;50.852;20.632;2023-12-29T04:19:29;29.00;25.00;15.20
21358;PMS7003;13506;50.852;20.632;2023-12-29T04:21:57;28.60;25.20;16.20
21358;PMS7003;13506;50.852;20.632;2023-12-29T04:24:25;43.20;38.00;25.60
21358;PMS7003;13506;50.852;20.632;2023-12-29T04:26:55;31.00;27.60;18.00
21358;PMS7003;13506;50.852;20.632;2023-12-29T04:29:23;24.80;22.20;15.20
21358;PMS7003;13506;50.852;20.632;2023-12-29T04:31:51;27.80;24.60;14.40
21358;PMS7003;13506;50.852;20.632;2023-12-29T04:34:20;33.80;26.60;17.00
21358;PMS7003;13506;50.852;20.632;2023-12-29T04:36:48;26.00;23.80;14.80
21358;PMS7003;13506;50.852;20.632;2023-12-29T04:39:16;24.00;23.20;12.20
21358;PMS7003;13506;50.852;20.632;2023-12-29T04:41:45;29.00;22.40;15.20
21358;PMS7003;13506;50.852;20.632;2023-12-29T04:44:14;33.20;31.40;20.20
21358;PMS7003;13506;50.852;20.632;2023-12-29T04:46:42;25.80;24.20;14.60
21358;PMS7003;13506;50.852;20.632;2023-12-29T04:49:10;28.60;27.80;17.60
21358;PMS7003;13506;50.852;20.632;2023-12-29T04:51:39;45.80;36.80;22.60
21358;PMS7003;13506;50.852;20.632;2023-12-29T04:54:07;28.00;25.40;14.60
21358;PMS7003;13506;50.852;20.632;2023-12-29T04:56:35;26.60;22.80;13.20
21358;PMS7003;13506;50.852;20.632;2023-12-29T04:59:03;27.80;27.80;18.80
21358;PMS7003;13506;50.852;20.632;2023-12-29T05:01:33;25.40;23.60;14.80
21358;PMS7003;13506;50.852;20.632;2023-12-29T05:04:01;27.60;23.60;15.20
21358;PMS7003;13506;50.852;20.632;2023-12-29T05:06:29;28.80;26.20;15.60
21358;PMS7003;13506;50.852;20.632;2023-12-29T05:08:57;29.40;26.80;15.40
21358;PMS7003;13506;50.852;20.632;2023-12-29T05:11:26;27.00;24.60;15.20
21358;PMS7003;13506;50.852;20.632;2023-12-29T05:13:54;27.60;25.80;15.40
21358;PMS7003;13506;50.852;20.632;2023-12-29T05:16:22;21.20;20.20;13.40
21358;PMS7003;13506;50.852;20.632;2023-12-29T05:18:51;28.80;24.60;14.00
21358;PMS7003;13506;50.852;20.632;2023-12-29T05:21:19;29.80;22.60;13.60
21358;PMS7003;13506;50.852;20.632;2023-12-29T05:23:49;25.20;23.40;12.00
21358;PMS7003;13506;50.852;20.632;2023-12-29T05:26:17;24.60;20.40;11.20
21358;PMS7003;13506;50.852;20.632;2023-12-29T05:28:46;25.60;20.20;12.40
21358;PMS7003;13506;50.852;20.632;2023-12-29T05:31:15;19.60;15.80;9.80
21358;PMS7003;13506;50.852;20.632;2023-12-29T05:33:43;27.60;25.20;19.60
21358;PMS7003;13506;50.852;20.632;2023-12-29T05:36:13;20.80;19.80;11.00
21358;PMS7003;13506;50.852;20.632;2023-12-29T05:38:43;23.40;21.60;12.20
21358;PMS7003;13506;50.852;20.632;2023-12-29T05:41:13;27.20;23.20;15.40
21358;PMS7003;13506;50.852;20.632;2023-12-29T05:43:41;26.00;22.60;12.80
21358;PMS7003;13506;50.852;20.632;2023-12-29T05:46:09;24.40;21.40;14.40
21358;PMS7003;13506;50.852;20.632;2023-12-29T05:48:39;27.00;23.80;12.40
21358;PMS7003;13506;50.852;20.632;2023-12-29T05:51:08;22.80;19.00;11.40
21358;PMS7003;13506;50.852;20.632;2023-12-29T05:53:38;28.40;24.60;16.00
21358;PMS7003;13506;50.852;20.632;2023-12-29T05:56:07;20.00;17.60;10.80
21358;PMS7003;13506;50.852;20.632;2023-12-29T05:58:35;25.20;23.80;14.80
21358;PMS7003;13506;50.852;20.632;2023-12-29T06:01:03;33.60;31.80;23.60
21358;PMS7003;13506;50.852;20.632;2023-12-29T06:03:31;18.60;16.20;11.00
21358;PMS7003;13506;50.852;20.632;2023-12-29T06:05:59;18.00;16.20;10.20
21358;PMS7003;13506;50.852;20.632;2023-12-29T06:08:27;31.60;31.00;17.20
21358;PMS7003;13506;50.852;20.632;2023-12-29T06:10:57;18.80;17.00;10.80
21358;PMS7003;13506;50.852;20.632;2023-12-29T06:13:25;22.60;22.60;13.40
21358;PMS7003;13506;50.852;20.632;2023-12-29T06:15:54;24.40;23.60;14.20
21358;PMS7003;13506;50.852;20.632;2023-12-29T06:18:22;25.00;22.20;12.80
21358;PMS7003;13506;50.852;20.632;2023-12-29T06:20:50;24.60;21.20;12.20
21358;PMS7003;13506;50.852;20.632;2023-12-29T06:23:20;24.20;21.80;14.00
21358;PMS7003;13506;50.852;20.632;2023-12-29T06:25:48;26.40;25.20;14.80
21358;PMS7003;13506;50.852;20.632;2023-12-29T06:28:17;25.00;22.60;15.40
21358;PMS7003;13506;50.852;20.632;2023-12-29T06:30:45;22.40;19.00;12.00
21358;PMS7003;13506;50.852;20.632;2023-12-29T06:33:13;26.60;23.00;13.80
21358;PMS7003;13506;50.852;20.632;2023-12-29T06:35:42;29.20;28.60;22.80
21358;PMS7003;13506;50.852;20.632;2023-12-29T06:38:10;31.60;26.40;13.40
21358;PMS7003;13506;50.852;20.632;2023-12-29T06:40:38;20.00;18.60;10.60
21358;PMS7003;13506;50.852;20.632;2023-12-29T06:43:06;35.80;31.00;21.00
21358;PMS7003;13506;50.852;20.632;2023-12-29T06:45:35;26.20;21.60;13.40
21358;PMS7003;13506;50.852;20.632;2023-12-29T06:48:03;26.80;22.00;14.60
21358;PMS7003;13506;50.852;20.632;2023-12-29T06:50:31;22.20;22.20;14.00
21358;PMS7003;13506;50.852;20.632;2023-12-29T06:52:59;25.60;22.80;12.20
21358;PMS7003;13506;50.852;20.632;2023-12-29T06:55:29;27.80;23.20;12.00
21358;PMS7003;13506;50.852;20.632;2023-12-29T06:57:57;21.60;20.40;11.00
21358;PMS7003;13506;50.852;20.632;2023-12-29T07:00:25;20.40;20.40;13.80
21358;PMS7003;13506;50.852;20.632;2023-12-29T07:02:55;25.80;22.40;14.20
21358;PMS7003;13506;50.852;20.632;2023-12-29T07:05:23;20.80;18.20;11.20
21358;PMS7003;13506;50.852;20.632;2023-12-29T07:07:52;25.80;20.00;11.60
21358;PMS7003;13506;50.852;20.632;2023-12-29T07:10:20;32.40;28.60;20.00
21358;PMS7003;13506;50.852;20.632;2023-12-29T07:12:48;21.80;17.80;11.00
21358;PMS7003;13506;50.852;20.632;2023-12-29T07:15:17;25.40;21.60;13.40
21358;PMS7003;13506;50.852;20.632;2023-12-29T07:17:45;20.60;20.60;14.80
21358;PMS7003;13506;50.852;20.632;2023-12-29T07:20:14;18.20;16.80;10.20
21358;PMS7003;13506;50.852;20.632;2023-12-29T07:22:42;19.60;12.40;7.40
21358;PMS7003;13506;50.852;20.632;2023-12-29T07:25:11;31.00;27.60;19.20
21358;PMS7003;13506;50.852;20.632;2023-12-29T07:27:40;16.60;15.00;8.00
21358;PMS7003;13506;50.852;20.632;2023-12-29T07:30:08;20.00;16.60;9.40
21358;PMS7003;13506;50.852;20.632;2023-12-29T07:32:37;27.00;22.80;13.80
21358;PMS7003;13506;50.852;20.632;2023-12-29T07:35:05;17.60;17.00;8.80
21358;PMS7003;13506;50.852;20.632;2023-12-29T07:37:35;21.20;14.00;10.40
21358;PMS7003;13506;50.852;20.632;2023-12-29T07:40:05;20.60;16.20;8.40
21358;PMS7003;13506;50.852;20.632;2023-12-29T07:42:36;17.40;16.40;11.00
21358;PMS7003;13506;50.852;20.632;2023-12-29T07:45:06;26.40;25.20;18.00
21358;PMS7003;13506;50.852;20.632;2023-12-29T07:47:35;14.40;13.20;7.40
21358;PMS7003;13506;50.852;20.632;2023-12-29T07:50:03;15.60;12.60;7.20
21358;PMS7003;13506;50.852;20.632;2023-12-29T07:52:32;12.60;12.40;7.40
21358;PMS7003;13506;50.852;20.632;2023-12-29T07:55:02;15.60;15.60;9.40
21358;PMS7003;13506;50.852;20.632;2023-12-29T07:57:29;22.40;16.80;9.40
21358;PMS7003;13506;50.852;20.632;2023-12-29T07:59:57;20.40;17.60;10.20
21358;PMS7003;13506;50.852;20.632;2023-12-29T08:02:25;15.00;11.40;6.80
21358;PMS7003;13506;50.852;20.632;2023-12-29T08:04:53;25.00;23.80;16.80
21358;PMS7003;13506;50.852;20.632;2023-12-29T08:07:21;22.20;15.80;10.60
21358;PMS7003;13506;50.852;20.632;2023-12-29T08:09:51;19.60;18.00;10.20
21358;PMS7003;13506;50.852;20.632;2023-12-29T08:12:18;25.80;25.00;17.40
21358;PMS7003;13506;50.852;20.632;2023-12-29T08:14:46;24.00;23.20;11.80
21358;PMS7003;13506;50.852;20.632;2023-12-29T08:17:14;19.20;16.60;9.20
21358;PMS7003;13506;50.852;20.632;2023-12-29T08:19:42;16.60;15.00;9.40
21358;PMS7003;13506;50.852;20.632;2023-12-29T08:22:09;17.80;15.80;8.80
21358;PMS7003;13506;50.852;20.632;2023-12-29T08:24:39;17.60;14.60;8.20
21358;PMS7003;13506;50.852;20.632;2023-12-29T08:27:11;16.60;14.00;8.60
21358;PMS7003;13506;50.852;20.632;2023-12-29T08:29:40;16.40;12.80;7.00
21358;PMS7003;13506;50.852;20.632;2023-12-29T08:32:08;20.80;16.20;10.00
21358;PMS7003;13506;50.852;20.632;2023-12-29T08:34:36;18.40;15.40;8.60
21358;PMS7003;13506;50.852;20.632;2023-12-29T08:37:04;22.20;20.60;11.60
21358;PMS7003;13506;50.852;20.632;2023-12-29T08:39:32;21.00;21.00;14.60
21358;PMS7003;13506;50.852;20.632;2023-12-29T08:42:00;16.00;14.00;8.40
21358;PMS7003;13506;50.852;20.632;2023-12-29T08:44:30;16.40;13.60;7.60
21358;PMS7003;13506;50.852;20.632;2023-12-29T08:46:58;20.20;20.20;12.60
21358;PMS7003;13506;50.852;20.632;2023-12-29T08:49:27;19.80;14.80;8.00
21358;PMS7003;13506;50.852;20.632;2023-12-29T08:51:57;15.80;13.80;9.00
21358;PMS7003;13506;50.852;20.632;2023-12-29T08:54:26;18.40;17.40;9.20
21358;PMS7003;13506;50.852;20.632;2023-12-29T08:56:54;16.00;15.80;11.00
21358;PMS7003;13506;50.852;20.632;2023-12-29T08:59:23;19.60;17.60;10.00
21358;PMS7003;13506;50.852;20.632;2023-12-29T09:01:52;18.80;17.20;9.20
21358;PMS7003;13506;50.852;20.632;2023-12-29T09:04:21;17.20;16.80;9.60
21358;PMS7003;13506;50.852;20.632;2023-12-29T09:06:48;20.40;19.60;12.00
21358;PMS7003;13506;50.852;20.632;2023-12-29T09:09:16;16.80;16.80;10.20
21358;PMS7003;13506;50.852;20.632;2023-12-29T09:11:44;20.80;19.00;9.00
21358;PMS7003;13506;50.852;20.632;2023-12-29T09:14:13;22.40;21.20;12.20
21358;PMS7003;13506;50.852;20.632;2023-12-29T09:16:42;15.80;14.80;7.60
21358;PMS7003;13506;50.852;20.632;2023-12-29T09:19:13;16.80;13.00;7.40
21358;PMS7003;13506;50.852;20.632;2023-12-29T09:21:41;17.80;16.00;9.20
21358;PMS7003;13506;50.852;20.632;2023-12-29T09:24:09;18.00;16.40;9.20
21358;PMS7003;13506;50.852;20.632;2023-12-29T09:26:37;16.80;15.40;7.80
21358;PMS7003;13506;50.852;20.632;2023-12-29T09:29:05;18.00;16.00;10.00
21358;PMS7003;13506;50.852;20.632;2023-12-29T09:31:33;15.40;14.60;8.60
21358;PMS7003;13506;50.852;20.632;2023-12-29T09:34:01;15.60;12.40;6.00
21358;PMS7003;13506;50.852;20.632;2023-12-29T09:36:31;17.80;16.00;8.00
21358;PMS7003;13506;50.852;20.632;2023-12-29T09:38:59;14.40;11.40;5.40
21358;PMS7003;13506;50.852;20.632;2023-12-29T09:41:28;15.60;12.60;6.20
21358;PMS7003;13506;50.852;20.632;2023-12-29T09:44:01;15.80;13.40;8.60
21358;PMS7003;13506;50.852;20.632;2023-12-29T09:46:31;14.80;13.00;6.00
21358;PMS7003;13506;50.852;20.632;2023-12-29T09:49:01;17.40;14.80;8.00
21358;PMS7003;13506;50.852;20.632;2023-12-29T09:51:32;13.40;12.80;8.00
21358;PMS7003;13506;50.852;20.632;2023-12-29T09:54:01;17.00;17.00;10.00
21358;PMS7003;13506;50.852;20.632;2023-12-29T09:56:31;11.80;10.00;6.40
21358;PMS7003;13506;50.852;20.632;2023-12-29T09:58:59;15.40;12.80;5.60
21358;PMS7003;13506;50.852;20.632;2023-12-29T10:01:29;15.40;13.00;8.60
21358;PMS7003;13506;50.852;20.632;2023-12-29T10:03:59;16.40;13.00;8.00
21358;PMS7003;13506;50.852;20.632;2023-12-29T10:06:27;17.60;13.00;7.20
21358;PMS7003;13506;50.852;20.632;2023-12-29T10:09:03;14.80;12.60;7.60
21358;PMS7003;13506;50.852;20.632;2023-12-29T10:11:33;11.40;10.20;6.00
21358;PMS7003;13506;50.852;20.632;2023-12-29T10:14:06;17.40;17.40;10.20
21358;PMS7003;13506;50.852;20.632;2023-12-29T10:16:48;10.25;10.25;6.25
21358;PMS7003;13506;50.852;20.632;2023-12-29T10:19:23;14.20;11.00;6.40
21358;PMS7003;13506;50.852;20.632;2023-12-29T10:22:03;18.40;12.80;6.00
21358;PMS7003;13506;50.852;20.632;2023-12-29T10:24:38;11.50;11.00;6.00
21358;PMS7003;13506;50.852;20.632;2023-12-29T10:27:08;13.75;10.00;5.75
21358;PMS7003;13506;50.852;20.632;2023-12-29T10:29:36;13.60;11.60;6.00
21358;PMS7003;13506;50.852;20.632;2023-12-29T10:32:05;17.20;13.80;7.00
21358;PMS7003;13506;50.852;20.632;2023-12-29T10:34:35;11.40;9.40;6.00
21358;PMS7003;13506;50.852;20.632;2023-12-29T10:37:04;10.50;9.00;6.75
21358;PMS7003;13506;50.852;20.632;2023-12-29T10:39:39;13.80;13.00;7.00
21358;PMS7003;13506;50.852;20.632;2023-12-29T10:42:21;23.00;21.00;16.60
21358;PMS7003;13506;50.852;20.632;2023-12-29T10:44:49;14.80;13.80;8.80
21358;PMS7003;13506;50.852;20.632;2023-12-29T10:47:32;18.40;16.00;12.00
21358;PMS7003;13506;50.852;20.632;2023-12-29T10:50:01;14.75;12.00;7.00
21358;PMS7003;13506;50.852;20.632;2023-12-29T10:52:32;11.60;8.80;6.00
21358;PMS7003;13506;50.852;20.632;2023-12-29T10:55:06;11.40;11.20;7.00
21358;PMS7003;13506;50.852;20.632;2023-12-29T10:57:35;12.80;9.40;6.00
21358;PMS7003;13506;50.852;20.632;2023-12-29T11:00:04;14.80;12.20;8.20
21358;PMS7003;13506;50.852;20.632;2023-12-29T11:02:33;10.80;9.00;5.00
21358;PMS7003;13506;50.852;20.632;2023-12-29T11:05:02;10.00;10.00;6.60
21358;PMS7003;13506;50.852;20.632;2023-12-29T11:07:33;22.20;21.20;17.20
21358;PMS7003;13506;50.852;20.632;2023-12-29T11:10:03;19.80;14.80;9.60
21358;PMS7003;13506;50.852;20.632;2023-12-29T11:12:33;11.50;9.75;6.00
21358;PMS7003;13506;50.852;20.632;2023-12-29T11:15:05;9.00;9.00;4.00
21358;PMS7003;13506;50.852;20.632;2023-12-29T11:17:34;10.75;9.50;2.50
21358;PMS7003;13506;50.852;20.632;2023-12-29T11:20:03;35.00;34.60;20.80
21358;PMS7003;13506;50.852;20.632;2023-12-29T11:22:34;10.25;9.50;5.50
21358;PMS7003;13506;50.852;20.632;2023-12-29T11:25:02;11.00;10.25;5.00
21358;PMS7003;13506;50.852;20.632;2023-12-29T11:27:34;8.60;8.40;4.40
21358;PMS7003;13506;50.852;20.632;2023-12-29T11:30:03;11.00;9.75;4.75
21358;PMS7003;13506;50.852;20.632;2023-12-29T11:32:34;15.00;13.00;8.50
21358;PMS7003;13506;50.852;20.632;2023-12-29T11:35:13;8.00;8.00;5.00
21358;PMS7003;13506;50.852;20.632;2023-12-29T11:37:50;7.75;7.00;4.00
21358;PMS7003;13506;50.852;20.632;2023-12-29T11:40:31;7.25;7.25;3.50
21358;PMS7003;13506;50.852;20.632;2023-12-29T11:43:08;17.00;17.00;13.80
21358;PMS7003;13506;50.852;20.632;2023-12-29T11:45:42;8.50;7.75;5.00
21358;PMS7003;13506;50.852;20.632;2023-12-29T11:48:11;8.50;8.50;5.50
21358;PMS7003;13506;50.852;20.632;2023-12-29T11:50:39;6.25;6.25;2.25
21358;PMS7003;13506;50.852;20.632;2023-12-29T11:53:09;9.50;8.50;5.00
21358;PMS7003;13506;50.852;20.632;2023-12-29T11:55:58;9.00;7.25;5.25
21358;PMS7003;13506;50.852;20.632;2023-12-29T11:58:26;11.50;9.75;6.00
21358;PMS7003;13506;50.852;20.632;2023-12-29T12:00:55;12.80;12.60;8.40
21358;PMS7003;13506;50.852;20.632;2023-12-29T12:03:23;9.25;9.25;5.00
21358;PMS7003;13506;50.852;20.632;2023-12-29T12:05:53;10.00;10.00;5.00
21358;PMS7003;13506;50.852;20.632;2023-12-29T12:08:30;9.00;9.00;3.00
21358;PMS7003;13506;50.852;20.632;2023-12-29T12:14:06;8.00;8.00;4.50
21358;PMS7003;13506;50.852;20.632;2023-12-29T12:16:46;10.25;9.75;7.00
21358;PMS7003;13506;50.852;20.632;2023-12-29T12:19:15;10.25;8.75;5.00
21358;PMS7003;13506;50.852;20.632;2023-12-29T12:21:45;21.20;19.80;14.60
21358;PMS7003;13506;50.852;20.632;2023-12-29T12:24:17;10.00;9.25;5.00
21358;PMS7003;13506;50.852;20.632;2023-12-29T12:26:46;8.50;7.25;3.75
21358;PMS7003;13506;50.852;20.632;2023-12-29T12:29:17;9.00;9.00;5.00
21358;PMS7003;13506;50.852;20.632;2023-12-29T12:31:53;9.25;9.25;5.00
21358;PMS7003;13506;50.852;20.632;2023-12-29T12:34:22;10.20;10.20;5.20
21358;PMS7003;13506;50.852;20.632;2023-12-29T12:36:51;9.75;9.25;5.25
21358;PMS7003;13506;50.852;20.632;2023-12-29T12:39:23;8.00;8.00;3.25
21358;PMS7003;13506;50.852;20.632;2023-12-29T12:42:04;14.50;13.00;7.00
21358;PMS7003;13506;50.852;20.632;2023-12-29T12:44:32;10.50;9.50;5.00
21358;PMS7003;13506;50.852;20.632;2023-12-29T12:47:01;7.80;7.00;3.80
21358;PMS7003;13506;50.852;20.632;2023-12-29T12:49:36;9.00;9.00;5.25
21358;PMS7003;13506;50.852;20.632;2023-12-29T12:52:04;21.20;19.80;15.00
21358;PMS7003;13506;50.852;20.632;2023-12-29T12:54:34;9.00;9.00;5.00
21358;PMS7003;13506;50.852;20.632;2023-12-29T12:57:02;10.25;10.00;3.00
21358;PMS7003;13506;50.852;20.632;2023-12-29T12:59:31;13.20;10.80;6.00
21358;PMS7003;13506;50.852;20.632;2023-12-29T13:02:01;8.25;7.50;5.00
21358;PMS7003;13506;50.852;20.632;2023-12-29T13:04:31;18.60;18.20;13.40
21358;PMS7003;13506;50.852;20.632;2023-12-29T13:06:59;8.50;8.50;5.00
21358;PMS7003;13506;50.852;20.632;2023-12-29T13:09:27;14.00;10.00;5.75
21358;PMS7003;13506;50.852;20.632;2023-12-29T13:12:11;21.00;18.40;15.20
21358;PMS7003;13506;50.852;20.632;2023-12-29T13:14:41;8.20;7.80;3.80
21358;PMS7003;13506;50.852;20.632;2023-12-29T13:17:10;20.00;20.00;13.20
21358;PMS7003;13506;50.852;20.632;2023-12-29T13:19:39;10.00;9.50;5.75
21358;PMS7003;13506;50.852;20.632;2023-12-29T13:22:10;9.00;7.00;5.00
21358;PMS7003;13506;50.852;20.632;2023-12-29T13:24:43;10.00;9.50;4.75
21358;PMS7003;13506;50.852;20.632;2023-12-29T13:27:14;12.75;10.75;5.00
21358;PMS7003;13506;50.852;20.632;2023-12-29T13:29:42;19.00;18.20;13.40
21358;PMS7003;13506;50.852;20.632;2023-12-29T13:32:14;11.50;11.50;5.00
21358;PMS7003;13506;50.852;20.632;2023-12-29T13:34:48;14.25;12.00;6.25
21358;PMS7003;13506;50.852;20.632;2023-12-29T13:37:25;9.75;9.50;5.25
21358;PMS7003;13506;50.852;20.632;2023-12-29T13:40:02;14.40;11.20;6.20
21358;PMS7003;13506;50.852;20.632;2023-12-29T13:42:40;14.20;11.80;6.80
21358;PMS7003;13506;50.852;20.632;2023-12-29T13:45:10;14.25;13.00;8.00
21358;PMS7003;13506;50.852;20.632;2023-12-29T13:47:42;13.80;12.80;7.00
21358;PMS7003;13506;50.852;20.632;2023-12-29T13:50:11;13.25;13.00;6.25
21358;PMS7003;13506;50.852;20.632;2023-12-29T13:52:39;21.60;20.60;15.80
21358;PMS7003;13506;50.852;20.632;2023-12-29T13:55:08;15.20;13.00;7.00
21358;PMS7003;13506;50.852;20.632;2023-12-29T13:57:36;16.00;11.50;6.00